| time (UTC) | temp C | wind direction | speed KPH | gust KPH | rain 1hr cm | rain 24hr cm | rain mn cm | humidity % | barometer mb |
| 20260507164032 | 18 | 211 | 6.4 | 29.0 | 0.00 | 0.00 | 0.00 | 47 | 1018.2 |
| 20260507163529 | 17 | 104 | 1.6 | 16.1 | 0.00 | 0.00 | 0.00 | 49 | 1018.0 |
| 20260507163027 | 18 | 148 | 8.0 | 24.1 | 0.00 | 0.00 | 0.00 | 46 | 1018.5 |
| 20260507162526 | 17 | 225 | 1.6 | 19.3 | 0.00 | 0.00 | 0.00 | 49 | 1018.5 |
| 20260507162024 | 16 | 203 | 6.4 | 25.7 | 0.00 | 0.00 | 0.00 | 49 | 1018.4 |
| 20260507161520 | 17 | 170 | 6.4 | 27.4 | 0.00 | 0.00 | 0.00 | 47 | 1018.6 |
| 20260507161017 | 17 | 185 | 3.2 | 16.1 | 0.00 | 0.00 | 0.00 | 48 | 1018.2 |
| 20260507160513 | 16 | 151 | 4.8 | 17.7 | 0.00 | 0.00 | 0.00 | 50 | 1018.2 |
| 20260507160010 | 17 | 224 | 1.6 | 8.0 | 0.00 | 0.00 | 0.00 | 51 | 1018.5 |
| 20260507155505 | 16 | 179 | 8.0 | 32.2 | 0.00 | 0.00 | 0.00 | 50 | 1018.4 |
| 20260507155003 | 16 | 194 | 11.3 | 30.6 | 0.00 | 0.00 | 0.00 | 49 | 1018.5 |
| 20260507154459 | 16 | 221 | 3.2 | 14.5 | 0.00 | 0.00 | 0.00 | 53 | 1018.6 |
| 20260507153956 | 16 | 119 | 6.4 | 20.9 | 0.00 | 0.00 | 0.00 | 54 | 1018.6 |
| 20260507153453 | 16 | 10 | 8.0 | 17.7 | 0.00 | 0.00 | 0.00 | 55 | 1018.7 |
| 20260507152949 | 15 | 134 | 8.0 | 24.1 | 0.00 | 0.00 | 0.00 | 56 | 1018.7 |
| 20260507152445 | 15 | 329 | 3.2 | 14.5 | 0.00 | 0.00 | 0.00 | 56 | 1018.8 |
| 20260507151941 | 15 | 141 | 4.8 | 19.3 | 0.00 | 0.00 | 0.00 | 55 | 1018.8 |
| 20260507151438 | 15 | 62 | 4.8 | 12.9 | 0.00 | 0.00 | 0.00 | 59 | 1019.1 |
| 20260507150934 | 15 | 151 | 0.0 | 17.7 | 0.00 | 0.00 | 0.00 | 58 | 1019.1 |
| 20260507150432 | 15 | 119 | 4.8 | 24.1 | 0.00 | 0.00 | 0.00 | 59 | 1019.1 |
| 20260507145928 | 15 | 137 | 4.8 | 12.9 | 0.00 | 0.00 | 0.00 | 60 | 1019.0 |
| 20260507145424 | 15 | 178 | 3.2 | 14.5 | 0.00 | 0.00 | 0.00 | 61 | 1019.1 |
| 20260507144921 | 14 | 115 | 3.2 | 17.7 | 0.00 | 0.00 | 0.00 | 62 | 1019.1 |
| 20260507144418 | 14 | 135 | 6.4 | 17.7 | 0.00 | 0.00 | 0.00 | 61 | 1019.2 |
| 20260507143915 | 14 | 127 | 4.8 | 12.9 | 0.00 | 0.00 | 0.00 | 62 | 1019.4 |
| 20260507143412 | 14 | 112 | 6.4 | 19.3 | 0.00 | 0.00 | 0.00 | 63 | 1019.2 |
| 20260507142908 | 14 | 128 | 4.8 | 19.3 | 0.00 | 0.00 | 0.00 | 62 | 1019.5 |
| 20260507142404 | 13 | 119 | 3.2 | 14.5 | 0.00 | 0.00 | 0.00 | 63 | 1019.4 |
| 20260507141902 | 13 | 187 | 4.8 | 16.1 | 0.00 | 0.00 | 0.00 | 65 | 1019.2 |
| 20260507141358 | 13 | 12 | 6.4 | 9.7 | 0.00 | 0.00 | 0.00 | 66 | 1019.5 |
| 20260507140854 | 13 | 183 | 0.0 | 12.9 | 0.00 | 0.00 | 0.00 | 67 | 1019.4 |
| 20260507140351 | 12 | 147 | 4.8 | 12.9 | 0.00 | 0.00 | 0.00 | 69 | 1019.5 |
| 20260507135849 | 12 | 225 | 3.2 | 8.0 | 0.00 | 0.00 | 0.00 | 69 | 1019.7 |
| 20260507135346 | 12 | 133 | 8.0 | 11.3 | 0.00 | 0.00 | 0.00 | 69 | 1019.5 |
| 20260507134843 | 12 | 112 | 4.8 | 11.3 | 0.00 | 0.00 | 0.00 | 70 | 1019.5 |
| 20260507134339 | 12 | 149 | 4.8 | 9.7 | 0.00 | 0.00 | 0.00 | 71 | 1019.6 |
| 20260507133835 | 12 | 7 | 0.0 | 11.3 | 0.00 | 0.00 | 0.00 | 72 | 1019.6 |
| 20260507133331 | 11 | 345 | 3.2 | 8.0 | 0.00 | 0.00 | 0.00 | 74 | 1019.6 |
| 20260507132830 | 11 | 106 | 3.2 | 11.3 | 0.00 | 0.00 | 0.00 | 76 | 1019.7 |
| 20260507132325 | 11 | 28 | 3.2 | 9.7 | 0.00 | 0.00 | 0.00 | 77 | 1020.0 |
| 20260507131823 | 10 | 32 | 3.2 | 17.7 | 0.00 | 0.00 | 0.00 | 79 | 1019.8 |
| 20260507131319 | 10 | 60 | 1.6 | 8.0 | 0.00 | 0.00 | 0.00 | 81 | 1019.7 |
| 20260507130816 | 10 | 202 | 3.2 | 8.0 | 0.00 | 0.00 | 0.00 | 82 | 1019.7 |
| 20260507130314 | 9 | 156 | 0.0 | 8.0 | 0.00 | 0.00 | 0.00 | 83 | 1019.8 |
| 20260507125813 | 9 | 104 | 4.8 | 8.0 | 0.00 | 0.00 | 0.00 | 84 | 1019.7 |
| 20260507125310 | 8 | 137 | 3.2 | 4.8 | 0.00 | 0.00 | 0.00 | 84 | 1019.7 |
| 20260507124807 | 8 | 130 | 1.6 | 6.4 | 0.00 | 0.00 | 0.00 | 85 | 1019.6 |
| 20260507124303 | 8 | 116 | 1.6 | 6.4 | 0.00 | 0.00 | 0.00 | 85 | 1019.8 |
| 20260507123802 | 8 | 121 | 0.0 | 4.8 | 0.00 | 0.00 | 0.00 | 86 | 1019.6 |
| 20260507123259 | 8 | 187 | 0.0 | 6.4 | 0.00 | 0.00 | 0.00 | 87 | 1019.5 |
| 20260507122754 | 7 | 106 | 0.0 | 4.8 | 0.00 | 0.00 | 0.00 | 88 | 1019.5 |
| 20260507122250 | 7 | 95 | 0.0 | 4.8 | 0.00 | 0.00 | 0.00 | 90 | 1019.7 |
| 20260507121746 | 7 | 136 | 3.2 | 4.8 | 0.00 | 0.00 | 0.00 | 91 | 1019.7 |
| 20260507121242 | 7 | 89 | 0.0 | 4.8 | 0.00 | 0.00 | 0.00 | 91 | 1019.6 |
| 20260507120738 | 6 | 89 | 0.0 | 3.2 | 0.00 | 0.00 | 0.00 | 91 | 1019.8 |
| 20260507120235 | 6 | 97 | 0.0 | 4.8 | 0.00 | 0.00 | 0.00 | 91 | 1019.7 |
| 20260507115731 | 6 | 89 | 0.0 | 3.2 | 0.00 | 0.00 | 0.00 | 91 | 1019.5 |
| 20260507115222 | 6 | 119 | 0.0 | 3.2 | 0.00 | 0.00 | 0.00 | 91 | 1019.5 |
| 20260507114717 | 6 | 102 | 1.6 | 4.8 | 0.00 | 0.00 | 0.00 | 91 | 1019.2 |
| 20260507114215 | 6 | 119 | 3.2 | 4.8 | 0.00 | 0.00 | 0.00 | 91 | 1019.4 |
| 20260507113712 | 6 | 110 | 1.6 | 3.2 | 0.00 | 0.00 | 0.00 | 90 | 1019.2 |
| 20260507113209 | 6 | 300 | 0.0 | 3.2 | 0.00 | 0.00 | 0.00 | 90 | 1019.2 |
| 20260507112707 | 6 | 89 | 0.0 | 3.2 | 0.00 | 0.00 | 0.00 | 90 | 1019.2 |
| 20260507112203 | 6 | 129 | 0.0 | 1.6 | 0.00 | 0.00 | 0.00 | 89 | 1019.4 |
| 20260507111701 | 6 | 83 | 0.0 | 3.2 | 0.00 | 0.00 | 0.00 | 88 | 1019.2 |
| 20260507111158 | 6 | 89 | 0.0 | 3.2 | 0.00 | 0.00 | 0.00 | 89 | 1019.5 |
| 20260507110653 | 6 | 104 | 0.0 | 3.2 | 0.00 | 0.00 | 0.00 | 88 | 1019.2 |
| 20260507110151 | 6 | 131 | 0.0 | 3.2 | 0.00 | 0.00 | 0.00 | 88 | 1019.2 |
| 20260507105647 | 6 | 99 | 0.0 | 4.8 | 0.00 | 0.00 | 0.00 | 87 | 1019.2 |
| 20260507105143 | 7 | 92 | 0.0 | 3.2 | 0.00 | 0.00 | 0.00 | 87 | 1019.2 |
| 20260507104641 | 7 | 118 | 1.6 | 3.2 | 0.00 | 0.00 | 0.00 | 86 | 1019.2 |
| 20260507104137 | 7 | 135 | 0.0 | 3.2 | 0.00 | 0.00 | 0.00 | 85 | 1019.0 |
| 20260507103633 | 7 | 89 | 0.0 | 1.6 | 0.00 | 0.00 | 0.00 | 85 | 1019.4 |
| 20260507103130 | 7 | 135 | 0.0 | 3.2 | 0.00 | 0.00 | 0.00 | 85 | 1019.4 |
| 20260507102626 | 7 | 124 | 1.6 | 3.2 | 0.00 | 0.00 | 0.00 | 84 | 1019.5 |
| 20260507102123 | 7 | 125 | 0.0 | 3.2 | 0.00 | 0.00 | 0.00 | 84 | 1019.6 |
| 20260507101619 | 7 | 89 | 0.0 | 3.2 | 0.00 | 0.00 | 0.00 | 83 | 1019.6 |
| 20260507101115 | 8 | 121 | 0.0 | 3.2 | 0.00 | 0.00 | 0.00 | 83 | 1019.7 |
| 20260507100612 | 8 | 89 | 3.2 | 4.8 | 0.00 | 0.00 | 0.00 | 83 | 1019.8 |
| 20260507100110 | 8 | 102 | 0.0 | 3.2 | 0.00 | 0.00 | 0.00 | 82 | 1019.7 |
| 20260507095608 | 8 | 129 | 1.6 | 3.2 | 0.00 | 0.00 | 0.00 | 81 | 1019.8 |
| 20260507095104 | 8 | 138 | 0.0 | 3.2 | 0.00 | 0.00 | 0.00 | 80 | 1019.7 |
| 20260507094600 | 8 | 88 | 1.6 | 4.8 | 0.00 | 0.00 | 0.00 | 80 | 1019.8 |
| 20260507094057 | 8 | 105 | 0.0 | 3.2 | 0.00 | 0.00 | 0.00 | 78 | 1019.8 |
| 20260507093555 | 9 | 329 | 1.6 | 4.8 | 0.00 | 0.00 | 0.00 | 78 | 1019.9 |
| 20260507093054 | 9 | 14 | 0.0 | 4.8 | 0.00 | 0.00 | 0.00 | 77 | 1019.7 |
| 20260507092549 | 10 | 108 | 3.2 | 8.0 | 0.00 | 0.00 | 0.00 | 76 | 1019.8 |
| 20260507092046 | 9 | 78 | 0.0 | 4.8 | 0.00 | 0.00 | 0.00 | 77 | 1019.8 |
| 20260507091543 | 9 | 340 | 3.2 | 9.7 | 0.00 | 0.00 | 0.00 | 78 | 1019.8 |
| 20260507091039 | 8 | 302 | 4.8 | 8.0 | 0.00 | 0.00 | 0.00 | 80 | 1019.9 |
| 20260507090535 | 8 | 121 | 1.6 | 4.8 | 0.00 | 0.00 | 0.00 | 82 | 1019.7 |
| 20260507090032 | 8 | 290 | 1.6 | 4.8 | 0.00 | 0.00 | 0.00 | 83 | 1019.8 |
| 20260507085529 | 8 | 29 | 0.0 | 3.2 | 0.00 | 0.00 | 0.00 | 83 | 1019.9 |
| 20260507085026 | 8 | 190 | 0.0 | 1.6 | 0.00 | 0.00 | 0.00 | 82 | 1019.8 |
| 20260507084522 | 8 | 76 | 0.0 | 1.6 | 0.00 | 0.00 | 0.00 | 80 | 1019.7 |
| 20260507084020 | 9 | 101 | 0.0 | 3.2 | 0.00 | 0.00 | 0.00 | 80 | 1019.7 |
| 20260507083516 | 9 | 73 | 0.0 | 3.2 | 0.00 | 0.00 | 0.00 | 79 | 1019.9 |
| 20260507083013 | 9 | 122 | 0.0 | 1.6 | 0.00 | 0.00 | 0.00 | 79 | 1020.0 |
| 20260507082509 | 9 | 89 | 0.0 | 0.0 | 0.00 | 0.00 | 0.00 | 79 | 1019.9 |
| 20260507082005 | 10 | 89 | 0.0 | 3.2 | 0.00 | 0.00 | 0.00 | 78 | 1020.1 |
| 20260507081502 | 10 | 89 | 0.0 | 1.6 | 0.00 | 0.00 | 0.00 | 77 | 1020.1 |
| 20260507080959 | 10 | 129 | 0.0 | 1.6 | 0.00 | 0.00 | 0.00 | 77 | 1020.0 |
| 20260507080454 | 10 | 103 | 0.0 | 1.6 | 0.00 | 0.00 | 0.00 | 76 | 1020.1 |
| 20260507075950 | 10 | 58 | 0.0 | 1.6 | 0.00 | 0.00 | 0.00 | 75 | 1020.0 |
| 20260507075446 | 10 | 142 | 0.0 | 3.2 | 0.00 | 0.00 | 0.00 | 75 | 1020.1 |
| 20260507074943 | 10 | 50 | 0.0 | 3.2 | 0.00 | 0.00 | 0.00 | 75 | 1020.2 |
| 20260507074440 | 10 | 62 | 0.0 | 3.2 | 0.00 | 0.00 | 0.00 | 75 | 1020.2 |
| 20260507073938 | 10 | 96 | 0.0 | 3.2 | 0.00 | 0.00 | 0.00 | 74 | 1020.2 |
| 20260507073434 | 10 | 65 | 0.0 | 3.2 | 0.00 | 0.00 | 0.00 | 74 | 1020.2 |
| 20260507072931 | 10 | 215 | 0.0 | 3.2 | 0.00 | 0.00 | 0.00 | 74 | 1020.3 |
| 20260507072428 | 10 | 137 | 0.0 | 1.6 | 0.00 | 0.00 | 0.00 | 73 | 1020.0 |
| 20260507071920 | 10 | 114 | 0.0 | 3.2 | 0.00 | 0.00 | 0.00 | 73 | 1020.2 |
| 20260507071417 | 10 | 82 | 0.0 | 3.2 | 0.00 | 0.00 | 0.00 | 73 | 1020.4 |
| 20260507070913 | 10 | 79 | 0.0 | 3.2 | 0.00 | 0.00 | 0.00 | 73 | 1020.5 |
| 20260507070411 | 10 | 125 | 0.0 | 1.6 | 0.00 | 0.00 | 0.00 | 71 | 1020.5 |
| 20260507065907 | 11 | 60 | 1.6 | 3.2 | 0.00 | 0.00 | 0.00 | 71 | 1020.5 |
| 20260507065404 | 11 | 119 | 1.6 | 3.2 | 0.00 | 0.00 | 0.00 | 71 | 1020.6 |
| 20260507064901 | 10 | 122 | 3.2 | 3.2 | 0.00 | 0.00 | 0.00 | 72 | 1020.8 |
| 20260507064359 | 10 | 89 | 0.0 | 1.6 | 0.00 | 0.00 | 0.00 | 71 | 1020.6 |
| 20260507063857 | 10 | 124 | 0.0 | 3.2 | 0.00 | 0.00 | 0.00 | 70 | 1020.7 |
| 20260507063354 | 10 | 134 | 0.0 | 3.2 | 0.00 | 0.00 | 0.00 | 70 | 1020.6 |
| 20260507062851 | 11 | 75 | 0.0 | 1.6 | 0.00 | 0.00 | 0.00 | 69 | 1020.5 |
| 20260507062347 | 11 | 89 | 0.0 | 1.6 | 0.00 | 0.00 | 0.00 | 69 | 1020.6 |
| 20260507061845 | 11 | 108 | 1.6 | 3.2 | 0.00 | 0.00 | 0.00 | 68 | 1020.5 |
| 20260507061343 | 11 | 113 | 0.0 | 3.2 | 0.00 | 0.00 | 0.00 | 68 | 1020.5 |
| 20260507060841 | 11 | 243 | 0.0 | 1.6 | 0.00 | 0.00 | 0.00 | 67 | 1020.5 |
| 20260507060338 | 11 | 216 | 0.0 | 3.2 | 0.00 | 0.00 | 0.00 | 68 | 1020.7 |
| 20260507055835 | 11 | 112 | 0.0 | 3.2 | 0.00 | 0.00 | 0.00 | 68 | 1020.5 |
| 20260507055329 | 11 | 142 | 0.0 | 3.2 | 0.00 | 0.00 | 0.00 | 68 | 1020.8 |
| 20260507054827 | 11 | 188 | 0.0 | 1.6 | 0.00 | 0.00 | 0.00 | 68 | 1020.8 |
| 20260507054322 | 11 | 205 | 0.0 | 1.6 | 0.00 | 0.00 | 0.00 | 68 | 1020.7 |
| 20260507053820 | 11 | 202 | 0.0 | 1.6 | 0.00 | 0.00 | 0.00 | 68 | 1020.6 |
| 20260507053318 | 11 | 243 | 0.0 | 1.6 | 0.00 | 0.00 | 0.00 | 70 | 1020.7 |
| 20260507052817 | 10 | 120 | 0.0 | 3.2 | 0.00 | 0.00 | 0.00 | 70 | 1020.7 |
| 20260507052313 | 10 | 133 | 1.6 | 3.2 | 0.00 | 0.00 | 0.00 | 69 | 1020.6 |
| 20260507051811 | 10 | 89 | 0.0 | 3.2 | 0.00 | 0.00 | 0.00 | 68 | 1020.7 |
| 20260507051308 | 10 | 113 | 0.0 | 3.2 | 0.00 | 0.00 | 0.00 | 67 | 1020.5 |
| 20260507050804 | 10 | 69 | 0.0 | 1.6 | 0.00 | 0.00 | 0.00 | 67 | 1020.4 |
| 20260507050301 | 10 | 130 | 0.0 | 3.2 | 0.00 | 0.00 | 0.00 | 67 | 1020.5 |
| 20260507045758 | 10 | 89 | 0.0 | 0.0 | 0.00 | 0.20 | 0.20 | 67 | 1020.5 |
| 20260507045254 | 10 | 309 | 0.0 | 3.2 | 0.00 | 0.20 | 0.20 | 67 | 1020.5 |
| 20260507044751 | 10 | 89 | 0.0 | 1.6 | 0.00 | 0.20 | 0.20 | 65 | 1020.6 |
| 20260507044248 | 10 | 46 | 0.0 | 3.2 | 0.00 | 0.20 | 0.20 | 66 | 1020.6 |
| 20260507043744 | 10 | 284 | 0.0 | 3.2 | 0.00 | 0.20 | 0.20 | 65 | 1020.6 |
| 20260507043241 | 10 | 322 | 0.0 | 3.2 | 0.00 | 0.20 | 0.20 | 66 | 1020.5 |
| 20260507042737 | 10 | 62 | 1.6 | 3.2 | 0.00 | 0.20 | 0.20 | 64 | 1020.5 |
| 20260507042232 | 10 | 269 | 0.0 | 3.2 | 0.00 | 0.20 | 0.20 | 64 | 1020.7 |
| 20260507041730 | 10 | 89 | 0.0 | 3.2 | 0.00 | 0.20 | 0.20 | 61 | 1020.6 |
| 20260507041226 | 11 | 283 | 0.0 | 1.6 | 0.00 | 0.20 | 0.20 | 61 | 1020.5 |
| 20260507040724 | 11 | 84 | 0.0 | 1.6 | 0.00 | 0.20 | 0.20 | 57 | 1020.5 |
| 20260507040219 | 11 | 69 | 0.0 | 3.2 | 0.00 | 0.20 | 0.20 | 56 | 1020.7 |
| 20260507035715 | 12 | 89 | 0.0 | 3.2 | 0.00 | 0.20 | 0.20 | 55 | 1020.5 |
| 20260507035211 | 12 | 89 | 0.0 | 1.6 | 0.00 | 0.20 | 0.20 | 54 | 1020.9 |
| 20260507034708 | 12 | 89 | 0.0 | 3.2 | 0.00 | 0.20 | 0.20 | 53 | 1020.8 |
| 20260507034206 | 12 | 74 | 1.6 | 4.8 | 0.00 | 0.20 | 0.20 | 54 | 1020.8 |
| 20260507033704 | 12 | 84 | 0.0 | 6.4 | 0.00 | 0.20 | 0.20 | 53 | 1020.8 |
| 20260507033201 | 12 | 40 | 3.2 | 6.4 | 0.00 | 0.20 | 0.20 | 53 | 1020.5 |
| 20260507032659 | 12 | 47 | 3.2 | 6.4 | 0.00 | 0.20 | 0.20 | 55 | 1020.4 |
| 20260507032154 | 12 | 70 | 3.2 | 3.2 | 0.00 | 0.20 | 0.20 | 57 | 1020.4 |
| 20260507031651 | 12 | 31 | 0.0 | 3.2 | 0.00 | 0.20 | 0.20 | 57 | 1020.7 |
| 20260507031148 | 12 | 69 | 0.0 | 3.2 | 0.00 | 0.20 | 0.20 | 57 | 1020.5 |
| 20260507030644 | 12 | 86 | 1.6 | 3.2 | 0.00 | 0.20 | 0.20 | 58 | 1020.6 |
| 20260507030142 | 12 | 43 | 1.6 | 3.2 | 0.00 | 0.20 | 0.20 | 55 | 1020.5 |
| 20260507025639 | 12 | 63 | 0.0 | 1.6 | 0.00 | 0.20 | 0.20 | 55 | 1020.5 |
| 20260507025136 | 12 | 122 | 0.0 | 3.2 | 0.00 | 0.20 | 0.20 | 55 | 1020.5 |
| 20260507024634 | 13 | 89 | 0.0 | 1.6 | 0.00 | 0.20 | 0.20 | 54 | 1020.4 |
| 20260507024131 | 13 | 1 | 0.0 | 4.8 | 0.00 | 0.20 | 0.20 | 53 | 1020.3 |
| 20260507023626 | 13 | 57 | 0.0 | 4.8 | 0.00 | 0.20 | 0.20 | 54 | 1020.4 |
| 20260507023124 | 13 | 24 | 3.2 | 4.8 | 0.00 | 0.20 | 0.20 | 52 | 1020.2 |
| 20260507022621 | 13 | 36 | 3.2 | 9.7 | 0.00 | 0.20 | 0.20 | 52 | 1020.2 |
| 20260507022116 | 13 | 62 | 1.6 | 6.4 | 0.00 | 0.20 | 0.20 | 51 | 1020.2 |
| 20260507021613 | 13 | 8 | 4.8 | 6.4 | 0.00 | 0.20 | 0.20 | 52 | 1020.2 |
| 20260507021109 | 13 | 15 | 3.2 | 9.7 | 0.00 | 0.20 | 0.20 | 52 | 1020.1 |
| 20260507020607 | 13 | 34 | 3.2 | 3.2 | 0.00 | 0.20 | 0.20 | 52 | 1020.3 |
| 20260507020103 | 13 | 319 | 0.0 | 3.2 | 0.00 | 0.20 | 0.20 | 52 | 1019.9 |
| 20260507015602 | 13 | 43 | 0.0 | 4.8 | 0.00 | 0.20 | 0.20 | 52 | 1019.9 |
| 20260507015059 | 13 | 89 | 0.0 | 4.8 | 0.00 | 0.20 | 0.20 | 51 | 1019.9 |
| 20260507014555 | 13 | 22 | 0.0 | 4.8 | 0.00 | 0.20 | 0.20 | 51 | 1019.6 |
| 20260507014051 | 13 | 68 | 1.6 | 3.2 | 0.00 | 0.20 | 0.20 | 51 | 1019.6 |
| 20260507013548 | 13 | 55 | 0.0 | 4.8 | 0.00 | 0.20 | 0.20 | 51 | 1019.4 |
| 20260507013045 | 13 | 37 | 1.6 | 4.8 | 0.00 | 0.20 | 0.20 | 50 | 1019.4 |
| 20260507012542 | 13 | 22 | 4.8 | 6.4 | 0.00 | 0.20 | 0.20 | 50 | 1019.5 |
| 20260507012038 | 13 | 52 | 3.2 | 3.2 | 0.00 | 0.20 | 0.20 | 50 | 1019.1 |
| 20260507011535 | 13 | 297 | 3.2 | 3.2 | 0.00 | 0.20 | 0.20 | 50 | 1019.4 |
| 20260507011026 | 13 | 31 | 6.4 | 8.0 | 0.00 | 0.20 | 0.20 | 49 | 1019.4 |
| 20260507010521 | 13 | 2 | 6.4 | 8.0 | 0.00 | 0.20 | 0.20 | 50 | 1019.2 |
| 20260507010018 | 13 | 302 | 0.0 | 4.8 | 0.00 | 0.20 | 0.20 | 50 | 1019.1 |
| 20260507005515 | 13 | 31 | 4.8 | 8.0 | 0.00 | 0.20 | 0.20 | 49 | 1019.5 |
| 20260507005011 | 13 | 14 | 3.2 | 8.0 | 0.00 | 0.20 | 0.20 | 50 | 1019.4 |
| 20260507004508 | 13 | 24 | 3.2 | 6.4 | 0.00 | 0.20 | 0.20 | 50 | 1019.5 |
| 20260507004006 | 13 | 52 | 3.2 | 11.3 | 0.00 | 0.20 | 0.20 | 49 | 1019.5 |
| 20260507003501 | 14 | 9 | 4.8 | 8.0 | 0.00 | 0.20 | 0.20 | 49 | 1019.2 |
| 20260507002955 | 14 | 54 | 3.2 | 12.9 | 0.00 | 0.20 | 0.20 | 50 | 1019.4 |
| 20260507002452 | 13 | 96 | 3.2 | 9.7 | 0.00 | 0.20 | 0.20 | 49 | 1019.5 |
| 20260507001944 | 13 | 3 | 6.4 | 9.7 | 0.00 | 0.20 | 0.20 | 49 | 1019.4 |
| 20260507001440 | 13 | 320 | 1.6 | 11.3 | 0.00 | 0.20 | 0.20 | 49 | 1019.2 |
| 20260507000938 | 14 | 350 | 4.8 | 12.9 | 0.00 | 0.20 | 0.20 | 49 | 1019.5 |
| 20260507000435 | 14 | 20 | 6.4 | 16.1 | 0.00 | 0.20 | 0.20 | 48 | 1019.1 |
| 20260506235929 | 15 | 36 | 8.0 | 11.3 | 0.00 | 0.20 | 0.20 | 48 | 1019.2 |
| 20260506235427 | 14 | 27 | 6.4 | 14.5 | 0.00 | 0.20 | 0.20 | 47 | 1019.0 |
| 20260506234921 | 15 | 24 | 4.8 | 12.9 | 0.00 | 0.20 | 0.20 | 47 | 1019.1 |
| 20260506234420 | 14 | 23 | 8.0 | 19.3 | 0.00 | 0.20 | 0.20 | 47 | 1019.2 |
| 20260506233917 | 15 | 25 | 11.3 | 24.1 | 0.00 | 0.20 | 0.20 | 46 | 1018.9 |
| 20260506233414 | 15 | 26 | 9.7 | 16.1 | 0.00 | 0.20 | 0.20 | 46 | 1019.0 |
| 20260506232910 | 15 | 35 | 8.0 | 16.1 | 0.00 | 0.20 | 0.20 | 46 | 1019.0 |
| 20260506232406 | 15 | 46 | 4.8 | 14.5 | 0.00 | 0.20 | 0.20 | 46 | 1019.0 |
| 20260506231902 | 15 | 28 | 6.4 | 16.1 | 0.00 | 0.20 | 0.20 | 45 | 1019.0 |
| 20260506231400 | 15 | 15 | 8.0 | 9.7 | 0.00 | 0.20 | 0.20 | 46 | 1018.8 |
| 20260506230857 | 15 | 20 | 9.7 | 14.5 | 0.00 | 0.20 | 0.20 | 44 | 1018.7 |
| 20260506230354 | 15 | 46 | 3.2 | 17.7 | 0.00 | 0.20 | 0.20 | 46 | 1019.0 |
| 20260506225850 | 15 | 19 | 4.8 | 8.0 | 0.00 | 0.20 | 0.20 | 45 | 1018.8 |
| 20260506225348 | 15 | 25 | 8.0 | 14.5 | 0.00 | 0.20 | 0.20 | 44 | 1018.8 |
| 20260506224844 | 16 | 14 | 8.0 | 19.3 | 0.00 | 0.20 | 0.20 | 43 | 1018.8 |
| 20260506224342 | 15 | 14 | 11.3 | 12.9 | 0.00 | 0.20 | 0.20 | 45 | 1018.6 |
| 20260506223838 | 15 | 29 | 4.8 | 12.9 | 0.00 | 0.20 | 0.20 | 45 | 1018.8 |
| 20260506223333 | 15 | 354 | 8.0 | 17.7 | 0.00 | 0.20 | 0.20 | 44 | 1018.7 |
| 20260506222831 | 15 | 9 | 8.0 | 19.3 | 0.00 | 0.20 | 0.20 | 45 | 1018.8 |
| 20260506222326 | 15 | 49 | 3.2 | 8.0 | 0.00 | 0.20 | 0.20 | 45 | 1018.7 |
| 20260506221825 | 15 | 19 | 6.4 | 14.5 | 0.00 | 0.20 | 0.20 | 45 | 1018.6 |
| 20260506221322 | 15 | 33 | 6.4 | 14.5 | 0.00 | 0.20 | 0.20 | 44 | 1018.7 |
| 20260506220819 | 15 | 42 | 6.4 | 20.9 | 0.00 | 0.20 | 0.20 | 45 | 1018.7 |
| 20260506220314 | 15 | 358 | 6.4 | 17.7 | 0.00 | 0.20 | 0.20 | 45 | 1018.7 |
| 20260506215811 | 15 | 74 | 3.2 | 12.9 | 0.00 | 0.20 | 0.20 | 45 | 1018.6 |
| 20260506215307 | 16 | 17 | 11.3 | 12.9 | 0.00 | 0.20 | 0.20 | 44 | 1018.9 |
| 20260506214803 | 16 | 48 | 3.2 | 8.0 | 0.00 | 0.20 | 0.20 | 44 | 1018.6 |
| 20260506214300 | 16 | 76 | 8.0 | 17.7 | 0.00 | 0.20 | 0.20 | 43 | 1018.8 |
| 20260506213758 | 16 | 305 | 6.4 | 12.9 | 0.00 | 0.20 | 0.20 | 42 | 1018.8 |
| 20260506213254 | 15 | 44 | 6.4 | 16.1 | 0.00 | 0.20 | 0.20 | 44 | 1018.9 |
| 20260506212752 | 16 | 76 | 3.2 | 9.7 | 0.00 | 0.20 | 0.20 | 44 | 1018.7 |
| 20260506212248 | 16 | 52 | 6.4 | 9.7 | 0.00 | 0.20 | 0.20 | 44 | 1018.9 |
| 20260506211743 | 16 | 96 | 4.8 | 8.0 | 0.00 | 0.20 | 0.20 | 42 | 1019.0 |
| 20260506211240 | 16 | 35 | 9.7 | 12.9 | 0.00 | 0.20 | 0.20 | 43 | 1019.1 |
| 20260506210737 | 15 | 110 | 3.2 | 9.7 | 0.00 | 0.20 | 0.20 | 43 | 1019.1 |
| 20260506210233 | 15 | 101 | 4.8 | 16.1 | 0.00 | 0.20 | 0.20 | 45 | 1019.4 |
| 20260506205730 | 15 | 113 | 3.2 | 17.7 | 0.00 | 0.20 | 0.20 | 44 | 1019.4 |
| 20260506205225 | 15 | 356 | 8.0 | 16.1 | 0.00 | 0.20 | 0.20 | 41 | 1019.1 |
| 20260506204718 | 15 | 12 | 4.8 | 11.3 | 0.00 | 0.20 | 0.20 | 42 | 1019.5 |
| 20260506204215 | 16 | 358 | 16.1 | 16.1 | 0.00 | 0.20 | 0.20 | 42 | 1019.4 |
| 20260506203713 | 15 | 2 | 9.7 | 16.1 | 0.00 | 0.20 | 0.20 | 45 | 1019.6 |
| 20260506203210 | 15 | 114 | 3.2 | 16.1 | 0.00 | 0.20 | 0.20 | 45 | 1019.7 |
| 20260506202708 | 16 | 16 | 6.4 | 12.9 | 0.00 | 0.20 | 0.20 | 45 | 1019.8 |
| 20260506202203 | 15 | 25 | 4.8 | 9.7 | 0.00 | 0.20 | 0.20 | 45 | 1020.0 |
| 20260506201700 | 15 | 17 | 6.4 | 14.5 | 0.00 | 0.20 | 0.20 | 44 | 1020.0 |
| 20260506201156 | 15 | 344 | 8.0 | 16.1 | 0.00 | 0.20 | 0.20 | 43 | 1020.1 |
| 20260506200653 | 16 | 65 | 4.8 | 6.4 | 0.00 | 0.20 | 0.20 | 44 | 1020.1 |
| 20260506200150 | 16 | 38 | 11.3 | 12.9 | 0.00 | 0.20 | 0.20 | 45 | 1019.9 |
| 20260506195647 | 15 | 83 | 4.8 | 9.7 | 0.00 | 0.20 | 0.20 | 43 | 1020.1 |
| 20260506195143 | 15 | 47 | 8.0 | 19.3 | 0.00 | 0.20 | 0.20 | 44 | 1020.1 |
| 20260506194641 | 15 | 71 | 0.0 | 11.3 | 0.00 | 0.20 | 0.20 | 46 | 1020.1 |
| 20260506194137 | 15 | 22 | 9.7 | 17.7 | 0.00 | 0.20 | 0.20 | 45 | 1020.4 |
| 20260506193635 | 15 | 84 | 4.8 | 12.9 | 0.00 | 0.20 | 0.20 | 46 | 1020.2 |
| 20260506193132 | 15 | 350 | 1.6 | 22.5 | 0.00 | 0.20 | 0.20 | 47 | 1020.1 |
| 20260506192628 | 15 | 336 | 9.7 | 17.7 | 0.00 | 0.20 | 0.20 | 47 | 1020.3 |
| 20260506192124 | 14 | 27 | 8.0 | 17.7 | 0.00 | 0.20 | 0.20 | 48 | 1020.3 |
| 20260506191621 | 15 | 30 | 17.7 | 22.5 | 0.00 | 0.20 | 0.20 | 50 | 1020.2 |
| 20260506191117 | 14 | 3 | 17.7 | 20.9 | 0.00 | 0.20 | 0.20 | 48 | 1020.3 |
| 20260506190615 | 14 | 354 | 6.4 | 12.9 | 0.00 | 0.20 | 0.20 | 48 | 1020.3 |
| 20260506190112 | 14 | 0 | 8.0 | 24.1 | 0.00 | 0.20 | 0.20 | 48 | 1020.4 |
| 20260506185609 | 15 | 52 | 4.8 | 14.5 | 0.00 | 0.20 | 0.20 | 49 | 1020.1 |
| 20260506185105 | 14 | 346 | 16.1 | 22.5 | 0.00 | 0.20 | 0.20 | 48 | 1020.2 |
| 20260506184602 | 15 | 14 | 22.5 | 25.7 | 0.00 | 0.20 | 0.20 | 48 | 1020.4 |
| 20260506184100 | 15 | 82 | 3.2 | 14.5 | 0.00 | 0.20 | 0.20 | 53 | 1020.3 |
| 20260506183556 | 14 | 7 | 11.3 | 25.7 | 0.00 | 0.20 | 0.20 | 49 | 1020.4 |
| 20260506183052 | 15 | 46 | 9.7 | 9.7 | 0.00 | 0.20 | 0.20 | 48 | 1020.6 |
| 20260506182550 | 15 | 68 | 4.8 | 16.1 | 0.00 | 0.20 | 0.20 | 51 | 1020.4 |
| 20260506182047 | 13 | 52 | 9.7 | 20.9 | 0.00 | 0.20 | 0.20 | 48 | 1020.7 |
| 20260506181545 | 13 | 22 | 16.1 | 20.9 | 0.00 | 0.20 | 0.20 | 51 | 1020.7 |
| 20260506181041 | 13 | 30 | 12.9 | 22.5 | 0.00 | 0.20 | 0.20 | 51 | 1020.9 |
| 20260506180538 | 13 | 23 | 14.5 | 25.7 | 0.00 | 0.20 | 0.20 | 55 | 1020.8 |
| 20260506180034 | 13 | 33 | 6.4 | 11.3 | 0.00 | 0.20 | 0.20 | 55 | 1021.0 |
| 20260506175531 | 13 | 39 | 11.3 | 27.4 | 0.00 | 0.20 | 0.20 | 52 | 1021.0 |
| 20260506175027 | 13 | 53 | 4.8 | 27.4 | 0.00 | 0.20 | 0.20 | 54 | 1021.0 |
| 20260506174526 | 12 | 77 | 3.2 | 11.3 | 0.00 | 0.20 | 0.20 | 57 | 1020.9 |
| 20260506174022 | 12 | 359 | 16.1 | 24.1 | 0.00 | 0.20 | 0.20 | 54 | 1021.2 |
| 20260506173520 | 12 | 358 | 12.9 | 14.5 | 0.00 | 0.20 | 0.20 | 56 | 1021.3 |
| 20260506173017 | 12 | 13 | 9.7 | 17.7 | 0.00 | 0.20 | 0.20 | 56 | 1021.3 |
| 20260506172514 | 12 | 50 | 3.2 | 24.1 | 0.00 | 0.20 | 0.20 | 58 | 1021.2 |
| 20260506172010 | 12 | 43 | 6.4 | 11.3 | 0.00 | 0.20 | 0.20 | 59 | 1021.2 |
| 20260506171508 | 12 | 83 | 8.0 | 20.9 | 0.00 | 0.20 | 0.20 | 60 | 1021.2 |
| 20260506171005 | 12 | 20 | 9.7 | 22.5 | 0.00 | 0.20 | 0.20 | 63 | 1021.0 |
| 20260506170501 | 12 | 28 | 17.7 | 22.5 | 0.00 | 0.20 | 0.20 | 62 | 1020.9 |
| 20260506165954 | 12 | 23 | 14.5 | 25.7 | 0.00 | 0.20 | 0.20 | 63 | 1021.2 |
| 20260506165452 | 11 | 24 | 9.7 | 20.9 | 0.00 | 0.20 | 0.20 | 64 | 1021.1 |
| 20260506164942 | 11 | 35 | 8.0 | 16.1 | 0.00 | 0.20 | 0.20 | 66 | 1021.2 |
| 20260506164439 | 11 | 11 | 9.7 | 16.1 | 0.00 | 0.20 | 0.20 | 65 | 1021.1 |